Time;durP1;ratioP1;P1;durP2;ratioP2;P2;SDS_P1;SDS_P2;PMS_P1;PMS_P2;Temp;Humidity;BMP_temperature;BMP_pressure;BME280_temperature;BME280_humidity;BME280_pressure;Samples;Min_cycle;Max_cycle;Signal;HPM_P1;HPM_P2
2021/10/08 00:00:54;;;;;;;25.00;18.85;;;11.70;99.90;;;;;;5016080;28;20474;-90
2021/10/08 00:03:20;;;;;;;24.48;18.63;;;11.70;99.90;;;;;;5032008;28;20374;-89
2021/10/08 00:05:46;;;;;;;30.05;19.65;;;11.60;99.90;;;;;;5026638;28;20367;-90
2021/10/08 00:08:11;;;;;;;24.52;19.35;;;11.60;99.90;;;;;;5032941;28;20034;-90
2021/10/08 00:10:37;;;;;;;24.20;18.15;;;11.60;99.90;;;;;;5033544;28;20455;-89
2021/10/08 00:13:03;;;;;;;24.63;19.02;;;11.60;99.90;;;;;;5002529;28;20124;-90
2021/10/08 00:15:28;;;;;;;24.35;19.05;;;11.60;99.90;;;;;;5018415;28;20028;-89
2021/10/08 00:17:54;;;;;;;25.80;19.95;;;11.60;99.90;;;;;;5018856;28;20122;-91
2021/10/08 00:20:19;;;;;;;28.45;20.33;;;11.60;99.90;;;;;;5020330;28;20029;-90
2021/10/08 00:22:46;;;;;;;34.42;21.10;;;11.60;99.90;;;;;;5019597;28;20470;-90
2021/10/08 00:25:12;;;;;;;31.85;20.17;;;11.60;99.90;;;;;;5036452;28;20057;-90
2021/10/08 00:27:38;;;;;;;28.63;20.30;;;11.60;99.90;;;;;;5036224;28;20029;-89
2021/10/08 00:30:04;;;;;;;25.38;19.02;;;11.60;99.90;;;;;;5002938;28;20021;-90
2021/10/08 00:32:30;;;;;;;27.17;19.08;;;11.60;99.90;;;;;;5035261;28;20544;-90
2021/10/08 00:34:55;;;;;;;31.58;19.98;;;11.60;99.90;;;;;;5018663;28;20041;-90
2021/10/08 00:37:21;;;;;;;27.33;19.80;;;11.60;99.90;;;;;;5018175;28;20032;-89
2021/10/08 00:39:47;;;;;;;28.00;21.25;;;11.60;99.90;;;;;;5034799;28;20517;-89
2021/10/08 00:42:19;;;;;;;35.30;20.55;;;11.60;99.90;;;;;;5035037;28;20044;-89
2021/10/08 00:44:45;;;;;;;29.13;19.83;;;11.60;99.90;;;;;;5035926;28;20462;-90
2021/10/08 00:47:14;;;;;;;27.08;19.33;;;11.60;99.90;;;;;;5018031;28;20125;-89
2021/10/08 00:49:40;;;;;;;27.70;20.23;;;11.60;99.90;;;;;;5035984;28;20037;-89
2021/10/08 00:52:06;;;;;;;24.65;18.83;;;11.50;99.90;;;;;;5035840;28;20090;-90
2021/10/08 00:54:31;;;;;;;33.40;19.20;;;11.50;99.90;;;;;;5001228;28;20064;-90
2021/10/08 00:57:00;;;;;;;31.77;18.38;;;11.50;99.90;;;;;;5017265;28;20056;-90
2021/10/08 00:59:29;;;;;;;25.40;18.90;;;11.50;99.90;;;;;;5002432;28;20026;-90
2021/10/08 01:01:55;;;;;;;26.80;19.35;;;11.50;99.90;;;;;;5050989;28;20401;-91
2021/10/08 01:04:24;;;;;;;25.27;18.70;;;11.50;99.90;;;;;;5017956;28;20036;-92
2021/10/08 01:06:50;;;;;;;24.40;18.70;;;11.50;99.90;;;;;;5034218;28;20107;-90
2021/10/08 01:09:16;;;;;;;24.85;18.95;;;11.50;99.90;;;;;;5017524;28;20402;-89
2021/10/08 01:11:44;;;;;;;26.65;18.70;;;11.50;99.90;;;;;;5034024;28;20040;-90
2021/10/08 01:14:09;;;;;;;25.85;18.58;;;11.40;99.90;;;;;;5034212;28;20040;-90
2021/10/08 01:16:35;;;;;;;23.90;18.23;;;11.40;99.90;;;;;;5034126;28;20029;-90
2021/10/08 01:19:01;;;;;;;24.75;19.00;;;11.40;99.90;;;;;;5017157;28;20053;-90
2021/10/08 01:21:27;;;;;;;24.75;18.27;;;11.40;99.90;;;;;;5017758;28;20367;-90
2021/10/08 01:23:52;;;;;;;22.27;16.83;;;11.40;99.90;;;;;;5017696;28;20053;-91
2021/10/08 01:26:18;;;;;;;28.00;19.90;;;11.40;99.90;;;;;;5001578;28;20033;-90
2021/10/08 01:28:44;;;;;;;26.85;18.67;;;11.30;99.90;;;;;;5017451;28;20445;-89
2021/10/08 01:31:10;;;;;;;24.75;18.70;;;11.40;99.90;;;;;;5034335;28;20029;-90
2021/10/08 01:33:36;;;;;;;26.52;18.10;;;11.30;99.90;;;;;;5017685;28;20026;-90
2021/10/08 01:36:01;;;;;;;24.27;18.45;;;11.30;99.90;;;;;;5034081;28;20030;-91
2021/10/08 01:38:27;;;;;;;26.38;17.13;;;11.30;99.90;;;;;;5033648;28;20021;-91
2021/10/08 01:40:53;;;;;;;26.08;18.00;;;11.20;99.90;;;;;;5033929;28;20089;-91
2021/10/08 01:43:18;;;;;;;23.63;17.80;;;11.20;99.90;;;;;;5030822;28;20030;-91
2021/10/08 01:45:44;;;;;;;26.35;18.65;;;11.20;99.90;;;;;;5025256;28;20029;-90
2021/10/08 01:48:09;;;;;;;25.52;19.13;;;11.20;99.90;;;;;;5033455;28;20032;-91
2021/10/08 01:50:35;;;;;;;26.63;19.92;;;11.20;99.90;;;;;;5020092;28;20053;-91
2021/10/08 01:53:01;;;;;;;25.23;19.42;;;11.20;99.90;;;;;;5037133;28;20033;-90
2021/10/08 01:55:26;;;;;;;26.13;18.85;;;11.20;99.90;;;;;;5001504;28;20065;-90
2021/10/08 01:57:52;;;;;;;26.58;17.95;;;11.10;99.90;;;;;;5030049;28;20054;-90
2021/10/08 02:00:18;;;;;;;24.48;18.42;;;11.10;99.90;;;;;;5037462;28;20113;-90
2021/10/08 02:02:44;;;;;;;23.80;17.88;;;11.10;99.90;;;;;;5040014;28;20025;-90
2021/10/08 02:05:09;;;;;;;28.73;18.30;;;11.10;99.90;;;;;;5037469;28;20125;-91
2021/10/08 02:07:35;;;;;;;22.75;17.88;;;11.10;99.90;;;;;;5020688;28;20034;-90
2021/10/08 02:10:01;;;;;;;24.08;18.33;;;11.10;99.90;;;;;;5020533;28;20470;-90
2021/10/08 02:12:26;;;;;;;29.10;19.15;;;11.10;99.90;;;;;;5020788;28;20033;-91
2021/10/08 02:14:52;;;;;;;26.23;19.25;;;11.10;99.90;;;;;;5037263;28;20029;-91
2021/10/08 02:17:18;;;;;;;24.33;17.48;;;11.10;99.90;;;;;;5036995;28;20026;-90
2021/10/08 02:19:44;;;;;;;24.75;18.05;;;11.00;99.90;;;;;;5038262;28;20474;-91
2021/10/08 02:22:09;;;;;;;26.50;19.73;;;11.10;99.90;;;;;;5036864;28;20087;-91
2021/10/08 02:24:38;;;;;;;32.90;18.15;;;11.00;99.90;;;;;;5052584;28;20096;-91
2021/10/08 02:27:04;;;;;;;31.13;17.98;;;11.00;99.90;;;;;;5041622;28;20121;-90
2021/10/08 02:29:30;;;;;;;28.58;19.20;;;11.00;99.90;;;;;;5036120;28;20060;-90
2021/10/08 02:31:56;;;;;;;23.42;18.15;;;11.00;99.90;;;;;;5037817;28;20083;-89
2021/10/08 02:34:22;;;;;;;23.83;17.50;;;11.00;99.90;;;;;;5036605;28;20030;-91
2021/10/08 02:36:48;;;;;;;21.65;17.20;;;11.00;99.90;;;;;;5036614;28;20033;-91
2021/10/08 02:39:14;;;;;;;27.25;17.33;;;11.00;99.90;;;;;;5053133;28;20034;-91
2021/10/08 02:41:40;;;;;;;22.88;16.48;;;11.00;99.90;;;;;;5036764;28;20458;-91
2021/10/08 02:44:05;;;;;;;25.30;16.73;;;10.90;99.90;;;;;;5033255;28;20367;-91
2021/10/08 02:46:31;;;;;;;21.85;16.38;;;10.90;99.90;;;;;;5007280;28;20030;-90
2021/10/08 02:48:57;;;;;;;21.27;15.77;;;10.90;99.90;;;;;;5033282;28;20026;-90
2021/10/08 02:51:23;;;;;;;19.48;15.93;;;10.90;99.90;;;;;;5034609;28;20029;-90
2021/10/08 02:53:49;;;;;;;22.63;17.50;;;10.90;99.90;;;;;;5036382;28;20068;-90
2021/10/08 02:56:15;;;;;;;24.13;16.23;;;10.80;99.90;;;;;;5036082;28;20038;-90
2021/10/08 02:58:41;;;;;;;26.05;16.58;;;10.80;99.90;;;;;;5053417;28;20033;-91
2021/10/08 03:01:06;;;;;;;22.88;16.40;;;10.80;99.90;;;;;;5031761;28;20425;-89
2021/10/08 03:03:32;;;;;;;21.10;16.08;;;10.80;99.90;;;;;;5050333;28;20088;-91
2021/10/08 03:05:58;;;;;;;22.23;16.42;;;10.80;99.90;;;;;;5045457;28;20029;-90
2021/10/08 03:08:25;;;;;;;22.73;16.63;;;10.80;99.90;;;;;;5022954;28;20083;-90
2021/10/08 03:10:51;;;;;;;26.92;17.13;;;10.80;99.90;;;;;;5026934;28;20417;-91
2021/10/08 03:13:16;;;;;;;21.23;16.65;;;10.80;99.90;;;;;;5033482;28;20030;-91
2021/10/08 03:15:42;;;;;;;24.40;16.48;;;10.80;99.90;;;;;;5036529;28;20037;-91
2021/10/08 03:18:08;;;;;;;22.98;16.67;;;10.80;99.90;;;;;;5050351;28;20030;-90
2021/10/08 03:20:34;;;;;;;27.90;17.63;;;10.80;99.90;;;;;;5012364;28;20017;-90
2021/10/08 03:23:00;;;;;;;26.90;17.05;;;10.80;99.90;;;;;;5040330;28;20029;-89
2021/10/08 03:25:25;;;;;;;26.90;18.70;;;10.80;99.90;;;;;;5074276;28;20077;-90
2021/10/08 03:27:51;;;;;;;25.48;18.30;;;10.70;99.90;;;;;;5032133;28;20010;-90
2021/10/08 03:30:17;;;;;;;25.60;17.88;;;10.70;99.90;;;;;;5021198;28;20129;-90
2021/10/08 03:32:44;;;;;;;24.20;17.80;;;10.70;99.90;;;;;;5057047;28;20021;-90
2021/10/08 03:35:10;;;;;;;28.20;17.90;;;10.70;99.90;;;;;;5054861;28;20368;-90
2021/10/08 03:37:55;;;;;;;23.33;17.17;;;10.70;99.90;;;;;;5067426;28;20480;-90
2021/10/08 03:40:29;;;;;;;40.67;17.27;;;10.70;99.90;;;;;;5053765;28;20053;-90
2021/10/08 03:42:57;;;;;;;28.60;16.58;;;10.70;99.90;;;;;;5054825;28;20041;-89
2021/10/08 03:45:29;;;;;;;26.40;16.17;;;10.70;99.90;;;;;;5039153;28;20032;-91
2021/10/08 03:50:53;;;;;;;32.00;15.45;;;10.60;99.90;;;;;;4990725;28;20037;-91
2021/10/08 03:53:19;;;;;;;24.75;14.68;;;10.60;99.90;;;;;;5012075;28;20028;-90
2021/10/08 03:55:44;;;;;;;25.42;14.20;;;10.60;99.90;;;;;;5041845;28;20033;-90
2021/10/08 03:58:10;;;;;;;25.60;14.52;;;10.60;99.90;;;;;;5042550;28;20041;-90
2021/10/08 04:00:36;;;;;;;21.40;14.43;;;10.50;99.90;;;;;;5039404;28;20033;-90
2021/10/08 04:03:01;;;;;;;20.55;15.43;;;10.50;99.90;;;;;;5023167;28;20021;-89
2021/10/08 04:05:27;;;;;;;22.60;14.60;;;10.50;99.90;;;;;;5007325;28;20045;-90
2021/10/08 04:07:53;;;;;;;29.90;15.10;;;10.50;99.90;;;;;;5039754;28;20041;-89
2021/10/08 04:10:18;;;;;;;22.75;14.27;;;10.50;99.90;;;;;;5004213;28;20029;-90
2021/10/08 04:12:44;;;;;;;26.40;14.93;;;10.40;99.90;;;;;;5009575;28;20033;-90
2021/10/08 04:15:10;;;;;;;22.75;14.93;;;10.40;99.90;;;;;;5052892;28;20466;-90
2021/10/08 04:17:36;;;;;;;20.30;14.68;;;10.40;99.90;;;;;;5040096;28;20037;-89
2021/10/08 04:20:02;;;;;;;20.02;15.23;;;10.40;99.90;;;;;;5020976;28;20071;-89
2021/10/08 04:22:27;;;;;;;19.02;14.73;;;10.30;99.90;;;;;;5034622;28;20021;-90
2021/10/08 04:24:53;;;;;;;19.83;15.40;;;10.30;99.90;;;;;;5051724;28;20059;-90
2021/10/08 04:27:18;;;;;;;21.17;15.80;;;10.30;99.90;;;;;;5037836;28;20026;-90
2021/10/08 04:29:44;;;;;;;18.00;14.13;;;10.30;99.90;;;;;;5020977;28;20425;-90
2021/10/08 04:32:10;;;;;;;19.25;14.57;;;10.30;99.90;;;;;;5018175;28;20470;-90
2021/10/08 04:34:35;;;;;;;19.15;14.60;;;10.30;99.90;;;;;;5018554;28;20033;-91
2021/10/08 04:37:01;;;;;;;19.83;14.85;;;10.30;99.90;;;;;;5034812;28;20057;-90
2021/10/08 04:39:27;;;;;;;19.95;15.20;;;10.30;99.90;;;;;;5034602;28;20032;-91
2021/10/08 04:41:52;;;;;;;23.55;14.27;;;10.30;99.90;;;;;;5034592;28;20057;-90
2021/10/08 04:44:18;;;;;;;22.73;13.82;;;10.30;99.90;;;;;;5034519;28;20029;-90
2021/10/08 04:46:44;;;;;;;20.33;14.63;;;10.30;99.90;;;;;;5035067;28;20033;-90
2021/10/08 04:49:09;;;;;;;21.70;14.55;;;10.20;99.90;;;;;;5034380;28;20053;-90
2021/10/08 04:51:35;;;;;;;28.77;14.27;;;10.20;99.90;;;;;;5034393;28;20049;-90
2021/10/08 04:54:02;;;;;;;26.60;14.50;;;10.20;99.90;;;;;;5018142;28;20382;-90
2021/10/08 04:56:27;;;;;;;18.23;13.65;;;10.20;99.90;;;;;;5027692;28;20080;-90
2021/10/08 04:58:53;;;;;;;22.35;13.65;;;10.20;99.90;;;;;;5024353;28;20008;-91
2021/10/08 05:01:19;;;;;;;16.63;13.00;;;10.20;99.90;;;;;;5030802;28;20029;-90
2021/10/08 05:03:45;;;;;;;20.08;13.68;;;10.20;99.90;;;;;;5033412;28;20021;-88
2021/10/08 05:06:11;;;;;;;21.10;13.80;;;10.20;99.90;;;;;;5033677;28;20041;-89
2021/10/08 05:08:40;;;;;;;19.90;13.15;;;10.10;99.90;;;;;;5017797;28;20029;-89
2021/10/08 05:11:06;;;;;;;17.13;12.65;;;10.10;99.90;;;;;;5018435;28;20385;-90
2021/10/08 05:13:31;;;;;;;16.35;13.05;;;10.10;99.90;;;;;;5030831;28;20087;-89
2021/10/08 05:15:57;;;;;;;25.33;13.32;;;10.10;99.90;;;;;;4998116;28;20034;-91
2021/10/08 05:18:23;;;;;;;21.98;12.77;;;10.10;99.90;;;;;;5022137;28;20025;-90
2021/10/08 05:20:48;;;;;;;20.40;12.90;;;10.10;99.90;;;;;;5029867;28;20071;-89
2021/10/08 05:23:14;;;;;;;25.75;13.40;;;10.10;99.90;;;;;;5017613;28;20108;-89
2021/10/08 05:25:39;;;;;;;19.88;13.48;;;10.00;99.90;;;;;;5021616;28;20033;-90
2021/10/08 05:28:05;;;;;;;25.55;13.43;;;10.00;99.90;;;;;;5021797;28;20037;-89
2021/10/08 05:30:31;;;;;;;22.15;14.60;;;10.00;99.90;;;;;;5037831;28;20713;-89
2021/10/08 05:32:57;;;;;;;23.70;14.57;;;10.00;99.90;;;;;;5037842;28;20120;-89
2021/10/08 05:35:22;;;;;;;16.63;13.10;;;10.00;99.90;;;;;;5004726;28;20041;-89
2021/10/08 05:37:48;;;;;;;19.33;13.43;;;10.00;99.90;;;;;;5021234;28;20022;-92
2021/10/08 05:40:14;;;;;;;18.75;13.88;;;10.00;99.90;;;;;;5038217;28;20018;-91
2021/10/08 05:42:40;;;;;;;18.90;13.82;;;9.90;99.90;;;;;;5037779;28;20081;-91
2021/10/08 05:45:06;;;;;;;19.25;14.32;;;9.90;99.90;;;;;;5054455;28;20040;-91
2021/10/08 05:47:31;;;;;;;20.45;13.85;;;9.90;99.90;;;;;;5020609;28;20121;-90
2021/10/08 05:49:57;;;;;;;21.30;14.27;;;9.90;99.90;;;;;;5037730;28;20045;-92
2021/10/08 05:52:23;;;;;;;17.85;13.52;;;9.90;99.90;;;;;;5019345;28;20467;-92
2021/10/08 05:54:48;;;;;;;17.30;13.18;;;9.90;99.90;;;;;;5032719;28;20433;-91
2021/10/08 05:57:15;;;;;;;19.73;13.20;;;9.90;99.90;;;;;;5028546;28;20049;-90
2021/10/08 05:59:41;;;;;;;20.48;13.23;;;9.90;99.90;;;;;;5038227;28;20032;-91
2021/10/08 06:02:07;;;;;;;19.70;13.90;;;9.90;99.90;;;;;;5034617;28;20034;-90
2021/10/08 06:04:33;;;;;;;18.80;13.82;;;9.80;99.90;;;;;;5031583;28;20523;-90
2021/10/08 06:06:58;;;;;;;20.27;13.95;;;9.80;99.90;;;;;;5004428;28;20030;-92
2021/10/08 06:09:24;;;;;;;18.85;13.88;;;9.80;99.90;;;;;;5030613;28;20459;-91
2021/10/08 06:11:50;;;;;;;19.13;14.20;;;9.80;99.90;;;;;;5052251;28;20022;-91
2021/10/08 06:14:15;;;;;;;33.20;15.77;;;9.80;99.90;;;;;;5037197;28;20027;-90
2021/10/08 06:16:41;;;;;;;20.85;13.77;;;9.80;99.90;;;;;;5029207;28;20442;-90
2021/10/08 06:19:06;;;;;;;22.48;14.68;;;9.80;99.90;;;;;;5040338;28;20053;-90
2021/10/08 06:21:32;;;;;;;25.02;14.35;;;9.80;99.90;;;;;;5013877;28;20025;-90
2021/10/08 06:23:58;;;;;;;19.83;13.70;;;9.80;99.90;;;;;;5020947;28;20079;-90
2021/10/08 06:26:24;;;;;;;19.67;13.85;;;9.80;99.90;;;;;;5025825;28;20058;-90
2021/10/08 06:28:49;;;;;;;22.25;14.25;;;9.80;99.90;;;;;;5033960;28;20026;-90
2021/10/08 06:31:15;;;;;;;19.40;14.95;;;9.80;99.90;;;;;;5012782;28;20029;-91
2021/10/08 06:33:41;;;;;;;20.08;14.38;;;9.80;99.90;;;;;;5037368;28;20037;-91
2021/10/08 06:36:06;;;;;;;22.05;15.65;;;9.80;99.90;;;;;;5037153;28;20037;-91
2021/10/08 06:38:32;;;;;;;20.05;13.93;;;9.80;99.90;;;;;;5036910;28;20033;-90
2021/10/08 06:40:58;;;;;;;18.90;13.43;;;9.80;99.90;;;;;;5053809;28;20029;-88
2021/10/08 06:43:23;;;;;;;20.50;13.35;;;9.80;99.90;;;;;;5033857;28;20033;-86
2021/10/08 06:45:49;;;;;;;17.73;13.48;;;9.80;99.90;;;;;;5031721;28;20060;-88
2021/10/08 06:48:15;;;;;;;24.92;14.30;;;9.80;99.90;;;;;;5037476;28;20029;-88
2021/10/08 06:50:41;;;;;;;21.92;13.30;;;9.80;99.90;;;;;;5020534;28;20033;-88
2021/10/08 06:53:09;;;;;;;20.23;14.23;;;9.80;99.90;;;;;;5037200;28;20458;-90
2021/10/08 06:55:36;;;;;;;33.47;14.20;;;9.80;99.90;;;;;;5043008;28;20022;-90
2021/10/08 06:58:02;;;;;;;29.45;13.85;;;9.80;99.90;;;;;;5026252;28;20045;-89
2021/10/08 07:00:28;;;;;;;29.15;13.15;;;9.80;99.90;;;;;;5040488;28;20093;-88
2021/10/08 07:02:55;;;;;;;22.20;13.43;;;9.80;99.90;;;;;;5038863;28;20063;-89
2021/10/08 07:05:23;;;;;;;25.58;13.38;;;9.70;99.90;;;;;;5053402;28;20088;-89
2021/10/08 07:07:50;;;;;;;22.23;14.05;;;9.70;99.90;;;;;;5067943;28;20030;-89
2021/10/08 07:10:16;;;;;;;20.92;13.38;;;9.70;99.90;;;;;;5070894;28;20018;-89
2021/10/08 07:12:42;;;;;;;19.88;13.82;;;9.70;99.90;;;;;;5055186;28;20026;-90
2021/10/08 07:15:18;;;;;;;20.30;13.57;;;9.70;99.90;;;;;;5052569;28;20025;-90
2021/10/08 07:17:48;;;;;;;21.08;14.70;;;9.70;99.90;;;;;;5034499;28;20018;-89
2021/10/08 07:20:15;;;;;;;24.77;13.38;;;9.70;99.90;;;;;;5045512;28;20049;-90
2021/10/08 07:22:41;;;;;;;19.92;13.93;;;9.70;99.90;;;;;;5037440;28;20022;-89
2021/10/08 07:25:08;;;;;;;18.90;13.40;;;9.80;99.90;;;;;;5049904;28;20038;-89
2021/10/08 07:27:35;;;;;;;23.17;13.40;;;9.80;99.90;;;;;;5032874;28;20065;-89
2021/10/08 07:30:02;;;;;;;19.88;13.43;;;9.70;99.90;;;;;;5034516;28;20087;-88
2021/10/08 07:32:28;;;;;;;24.08;13.45;;;9.70;99.90;;;;;;5020680;28;20017;-89
2021/10/08 07:34:55;;;;;;;20.77;13.98;;;9.70;99.90;;;;;;5019818;28;20120;-90
2021/10/08 07:37:21;;;;;;;24.73;14.45;;;9.70;99.90;;;;;;5034943;28;20021;-89
2021/10/08 07:39:47;;;;;;;19.98;14.02;;;9.70;99.90;;;;;;5033216;28;20029;-89
2021/10/08 07:42:13;;;;;;;19.25;13.18;;;9.70;99.90;;;;;;5035239;28;20028;-90
2021/10/08 07:44:41;;;;;;;24.30;14.60;;;9.80;99.90;;;;;;5058311;28;20093;-89
2021/10/08 07:47:07;;;;;;;19.77;13.95;;;9.80;99.90;;;;;;5040768;28;20033;-89
2021/10/08 07:49:33;;;;;;;26.35;14.73;;;9.80;99.90;;;;;;5034076;28;20056;-91
2021/10/08 07:51:58;;;;;;;22.45;14.25;;;9.80;99.90;;;;;;5019463;28;20056;-90
2021/10/08 07:54:24;;;;;;;19.98;14.57;;;9.80;99.90;;;;;;5017381;28;20029;-90
2021/10/08 07:56:50;;;;;;;25.92;14.73;;;9.90;99.90;;;;;;5017194;28;20046;-91
2021/10/08 07:59:15;;;;;;;23.17;15.18;;;9.90;99.90;;;;;;5031012;28;20453;-93
2021/10/08 08:01:41;;;;;;;22.88;16.10;;;9.90;99.90;;;;;;5018823;28;20021;-91
2021/10/08 08:04:07;;;;;;;26.95;15.73;;;9.90;99.90;;;;;;5019207;28;20071;-90
2021/10/08 08:06:32;;;;;;;22.05;15.52;;;9.90;99.90;;;;;;5013555;28;20033;-89
2021/10/08 08:08:58;;;;;;;22.98;14.75;;;10.00;99.90;;;;;;5026823;28;20029;-91
2021/10/08 08:11:24;;;;;;;32.75;16.38;;;9.90;99.90;;;;;;5000181;28;20029;-90
2021/10/08 08:13:49;;;;;;;23.20;16.20;;;10.00;99.90;;;;;;5018743;28;20041;-90
2021/10/08 08:16:16;;;;;;;24.08;15.80;;;10.10;99.90;;;;;;5016312;28;20057;-90
2021/10/08 08:18:42;;;;;;;24.63;16.50;;;10.10;99.90;;;;;;5018851;28;20026;-88
2021/10/08 08:21:08;;;;;;;28.80;17.38;;;10.10;99.90;;;;;;5032279;28;20056;-90
2021/10/08 08:23:34;;;;;;;26.05;17.00;;;10.10;99.90;;;;;;5033008;28;20025;-89
2021/10/08 08:25:59;;;;;;;23.17;16.33;;;10.10;99.90;;;;;;5034656;28;20069;-89
2021/10/08 08:28:27;;;;;;;25.73;15.82;;;10.20;99.90;;;;;;5035510;28;20406;-90
2021/10/08 08:30:54;;;;;;;23.63;16.13;;;10.20;99.90;;;;;;5020955;28;20021;-89
2021/10/08 08:33:19;;;;;;;28.38;17.25;;;10.20;99.90;;;;;;5036286;28;20029;-90
2021/10/08 08:35:45;;;;;;;25.25;17.08;;;10.30;99.90;;;;;;5002183;28;20106;-90
2021/10/08 08:38:10;;;;;;;25.60;16.98;;;10.30;99.90;;;;;;5033384;28;20164;-89
2021/10/08 08:40:36;;;;;;;25.80;15.88;;;10.30;99.90;;;;;;5035095;28;20109;-89
2021/10/08 08:43:03;;;;;;;23.73;15.50;;;10.40;99.90;;;;;;5033345;28;20026;-89
2021/10/08 08:45:30;;;;;;;26.65;17.17;;;10.40;99.90;;;;;;5035691;28;20029;-90
2021/10/08 08:48:05;;;;;;;27.40;17.63;;;10.40;99.90;;;;;;5017984;28;20025;-90
2021/10/08 08:50:32;;;;;;;29.13;17.73;;;10.50;99.90;;;;;;5035103;28;20404;-90
2021/10/08 08:52:58;;;;;;;28.95;18.73;;;10.50;99.90;;;;;;5033904;28;20035;-89
2021/10/08 08:55:25;;;;;;;27.50;17.67;;;10.50;99.90;;;;;;5051554;28;20111;-90
2021/10/08 08:57:50;;;;;;;31.55;18.10;;;10.50;99.90;;;;;;5034081;28;20046;-89
2021/10/08 09:00:18;;;;;;;26.13;16.48;;;10.60;99.90;;;;;;5017591;28;20029;-90
2021/10/08 09:02:55;;;;;;;28.60;17.02;;;10.60;99.90;;;;;;5034516;28;20025;-90
2021/10/08 09:05:23;;;;;;;27.48;16.65;;;10.70;99.90;;;;;;5022292;28;20037;-90
2021/10/08 09:07:52;;;;;;;24.77;15.98;;;10.70;99.90;;;;;;5034338;28;20026;-90
2021/10/08 09:10:20;;;;;;;31.50;18.42;;;10.80;99.90;;;;;;5030607;28;20071;-90
2021/10/08 09:12:49;;;;;;;35.78;20.13;;;10.80;99.90;;;;;;5026399;28;20032;-91
2021/10/08 09:15:17;;;;;;;33.42;20.23;;;10.90;99.90;;;;;;5034247;28;20021;-89
2021/10/08 09:17:42;;;;;;;29.58;17.75;;;10.90;99.90;;;;;;5030575;28;20534;-90
2021/10/08 09:20:10;;;;;;;32.92;19.60;;;11.00;99.90;;;;;;5030535;28;20183;-90
2021/10/08 09:22:39;;;;;;;30.77;18.33;;;11.00;99.90;;;;;;5034258;28;20462;-89
2021/10/08 09:25:14;;;;;;;29.83;18.20;;;11.00;99.90;;;;;;5034349;28;20034;-91
2021/10/08 09:27:42;;;;;;;32.75;19.58;;;11.10;99.90;;;;;;5034254;28;20347;-88
2021/10/08 09:30:08;;;;;;;31.38;17.92;;;11.10;99.90;;;;;;5017149;28;20050;-91
2021/10/08 09:32:45;;;;;;;36.75;20.80;;;11.20;99.90;;;;;;5046465;28;20483;-91
2021/10/08 09:35:15;;;;;;;32.58;19.35;;;11.30;99.90;;;;;;5016000;28;20030;-90
2021/10/08 09:37:42;;;;;;;35.15;19.98;;;11.30;99.90;;;;;;5033388;28;20072;-89
2021/10/08 09:40:27;;;;;;;32.58;19.40;;;11.40;99.90;;;;;;5033028;28;20093;-89
2021/10/08 09:43:04;;;;;;;39.58;21.85;;;11.50;99.90;;;;;;5044617;28;20048;-90
2021/10/08 09:45:42;;;;;;;47.33;27.05;;;11.50;99.90;;;;;;5029657;28;20113;-90
2021/10/08 09:48:09;;;;;;;41.70;24.83;;;11.60;99.90;;;;;;5033486;28;20061;-89
2021/10/08 09:50:35;;;;;;;41.95;24.52;;;11.60;99.90;;;;;;5029703;28;20045;-89
2021/10/08 09:53:28;;;;;;;43.97;24.73;;;11.70;99.90;;;;;;5032575;28;20036;-89
2021/10/08 09:55:54;;;;;;;45.00;25.67;;;11.80;99.90;;;;;;5004556;28;20034;-90
2021/10/08 09:58:24;;;;;;;47.78;25.98;;;11.90;99.90;;;;;;5022422;28;20046;-91
2021/10/08 10:01:01;;;;;;;46.58;26.88;;;11.90;99.90;;;;;;5028968;28;20022;-90
2021/10/08 10:03:28;;;;;;;49.40;27.13;;;12.00;99.90;;;;;;5023974;28;20025;-89
2021/10/08 10:05:57;;;;;;;56.88;30.50;;;12.10;99.90;;;;;;5033017;28;20053;-90
2021/10/08 10:08:23;;;;;;;53.17;30.42;;;12.20;99.90;;;;;;5033374;28;20030;-90
2021/10/08 10:10:50;;;;;;;59.63;30.02;;;12.30;99.90;;;;;;5010153;28;20040;-89
2021/10/08 10:13:17;;;;;;;52.42;28.85;;;12.40;99.90;;;;;;5034429;28;20470;-91
2021/10/08 10:15:45;;;;;;;54.08;30.30;;;12.50;99.90;;;;;;5049832;28;20467;-91
2021/10/08 10:18:16;;;;;;;55.60;30.48;;;12.50;99.90;;;;;;5042590;28;20022;-92
2021/10/08 10:20:48;;;;;;;60.35;31.42;;;12.60;99.90;;;;;;5028657;28;20044;-87
2021/10/08 10:23:14;;;;;;;;;;;12.70;99.90;;;;;;5034413;28;20021;-90
2021/10/08 10:25:40;;;;;;;54.45;28.67;;;12.80;99.90;;;;;;5047285;28;20377;-89
2021/10/08 10:28:06;;;;;;;54.95;30.02;;;12.90;99.90;;;;;;5030573;28;20143;-91
2021/10/08 10:30:33;;;;;;;53.75;30.00;;;13.00;99.90;;;;;;5036115;28;20049;-91
2021/10/08 10:33:01;;;;;;;60.95;33.03;;;13.10;99.90;;;;;;5035825;28;20022;-92
2021/10/08 10:36:00;;;;;;;61.85;32.75;;;13.10;99.90;;;;;;5018464;28;20038;-92
2021/10/08 10:38:27;;;;;;;61.25;34.05;;;13.30;99.90;;;;;;5017644;28;20091;-93
2021/10/08 10:41:08;;;;;;;54.97;32.42;;;13.30;99.90;;;;;;5038237;28;20025;-92
2021/10/08 10:43:42;;;;;;;50.90;28.48;;;13.50;99.90;;;;;;5045507;28;20025;-91
2021/10/08 10:52:03;;;;;;;50.38;30.48;;;13.70;99.90;;;;;;5047493;28;20017;-90
2021/10/08 10:54:38;;;;;;;44.97;28.08;;;13.80;99.90;;;;;;5058303;28;20018;-90
2021/10/08 10:57:07;;;;;;;52.20;31.20;;;13.90;99.90;;;;;;5058348;28;20061;-91
2021/10/08 10:59:34;;;;;;;57.05;33.50;;;13.90;99.90;;;;;;5070697;28;20026;-90
2021/10/08 11:02:07;;;;;;;50.13;30.52;;;14.00;99.90;;;;;;5046129;28;20025;-91
2021/10/08 11:04:36;;;;;;;53.53;32.60;;;14.10;99.90;;;;;;5049970;28;20037;-91
2021/10/08 11:07:07;;;;;;;47.33;28.27;;;14.20;99.90;;;;;;5036255;28;20032;-90
2021/10/08 11:09:33;;;;;;;45.95;29.25;;;14.30;99.90;;;;;;5035736;28;20025;-90
2021/10/08 11:12:30;;;;;;;52.92;31.42;;;14.30;99.90;;;;;;5035253;28;20429;-91
2021/10/08 11:15:17;;;;;;;44.97;28.02;;;14.40;99.90;;;;;;5036005;28;20027;-90
2021/10/08 11:17:45;;;;;;;43.38;26.60;;;14.50;99.90;;;;;;5030470;28;20029;-90
2021/10/08 11:20:32;;;;;;;47.05;27.42;;;14.60;99.90;;;;;;5035375;28;20032;-91
2021/10/08 11:23:20;;;;;;;39.95;25.08;;;14.70;99.90;;;;;;5048895;28;20022;-90
2021/10/08 11:25:48;;;;;;;37.63;23.25;;;14.80;99.90;;;;;;5035341;28;20063;-91
2021/10/08 11:28:15;;;;;;;37.92;24.30;;;14.90;99.90;;;;;;5036208;28;20469;-90
2021/10/08 11:30:41;;;;;;;35.17;23.60;;;15.00;99.90;;;;;;5032038;28;20017;-89
2021/10/08 11:33:07;;;;;;;34.83;23.17;;;15.10;99.90;;;;;;5036801;28;20112;-89
2021/10/08 11:35:35;;;;;;;33.67;22.27;;;15.20;99.90;;;;;;5035310;28;20028;-89
2021/10/08 11:38:03;;;;;;;34.60;21.25;;;15.30;99.90;;;;;;5031861;28;20471;-89
2021/10/08 11:40:44;;;;;;;30.08;21.08;;;15.40;99.90;;;;;;5048592;28;20022;-90
2021/10/08 11:43:36;;;;;;;29.52;19.75;;;15.50;99.90;;;;;;5036197;28;20033;-89
2021/10/08 11:46:23;;;;;;;28.13;18.20;;;15.60;99.90;;;;;;5035951;28;20037;-89
2021/10/08 11:48:54;;;;;;;27.52;18.08;;;15.70;99.90;;;;;;5037423;28;20033;-89
2021/10/08 11:51:23;;;;;;;25.75;17.88;;;15.80;99.90;;;;;;5031310;28;20685;-90
2021/10/08 11:53:55;;;;;;;22.95;16.85;;;15.90;99.90;;;;;;5027075;28;20157;-89
2021/10/08 11:56:33;;;;;;;23.58;16.77;;;16.00;99.90;;;;;;5032384;28;20025;-93
2021/10/08 11:58:58;;;;;;;20.63;14.93;;;16.10;99.90;;;;;;5043804;28;20033;-90
2021/10/08 12:01:26;;;;;;;20.15;14.05;;;16.20;99.90;;;;;;5033355;28;20032;-90
2021/10/08 12:03:53;;;;;;;19.38;13.02;;;16.30;99.90;;;;;;5030381;28;20028;-89
2021/10/08 12:06:23;;;;;;;18.80;13.63;;;16.40;99.90;;;;;;5034485;28;20029;-90
2021/10/08 12:08:55;;;;;;;18.25;13.65;;;16.50;99.90;;;;;;5036996;28;20047;-96
2021/10/08 12:11:21;;;;;;;16.75;12.80;;;16.60;99.90;;;;;;5034743;28;20057;-90
2021/10/08 12:13:51;;;;;;;15.25;10.98;;;16.60;99.90;;;;;;5033008;28;20056;-89
2021/10/08 12:16:22;;;;;;;14.82;10.63;;;16.70;99.90;;;;;;5032553;28;20029;-89
2021/10/08 12:18:57;;;;;;;13.43;10.13;;;16.80;99.90;;;;;;5033039;28;20125;-90
2021/10/08 12:21:32;;;;;;;11.55;8.30;;;16.90;99.90;;;;;;5021317;28;20109;-90
2021/10/08 12:24:14;;;;;;;8.65;6.53;;;17.00;99.90;;;;;;5045932;28;20018;-88
2021/10/08 12:26:42;;;;;;;7.68;5.78;;;17.10;99.90;;;;;;5032136;28;20476;-89
2021/10/08 12:29:13;;;;;;;7.38;5.50;;;17.10;99.90;;;;;;5034170;28;20025;-89
2021/10/08 12:31:59;;;;;;;7.82;5.40;;;17.20;99.90;;;;;;5033349;28;20108;-89
2021/10/08 12:34:33;;;;;;;6.32;4.45;;;17.30;99.90;;;;;;5048541;28;20088;-89
2021/10/08 12:37:01;;;;;;;6.15;3.88;;;17.40;99.90;;;;;;5040790;28;20025;-89
2021/10/08 12:39:27;;;;;;;4.95;3.50;;;17.40;99.90;;;;;;5032491;28;20022;-89
2021/10/08 12:41:56;;;;;;;4.45;3.17;;;17.50;99.90;;;;;;5016548;28;20132;-89